Cyril E King Airport (STT/TIST)


Airport Information
Location: Charlotte Amalie, U.S.V.I
Coordinates: 18.3373 / -64.9733
Field Elevation: 21ft
Longest Runway: 6,998ft
ILS Approaches: YES
Landing Fees: $503 per flight
Jet A Price: $0.48/lbs

Current Weather
METAR: TIST 010953Z AUTO 14009KT 10SM FEW016 28/24 A2990 RMK AO2 RAB09E21 SLP125 P0000 T02780244
TAF: TIST 010536Z 0106/0206 10009KT P6SM FEW016 FEW030 FM010740 12008KT P6SM VCSH SCT018 SCT030 FM011300 14010KT P6SM VCSH FEW030 SCT050 SCT070 FM012300 12006KT P6SM FEW030

No chart available
Flight Arriving
CPX327 TJSJ - Luis Munoz Marin International Airport
Puerto Rico San Juan, Puerto Rico
CPX432 KMIA - Miami International Airport
United StatesFlorida Miami, Florida
Flight Aircraft Departing
CPX340
KMIA - Miami International Airport
United StatesFlorida Miami, Florida



Recent Arrivals
Date Flight Type Depart
05/16/2022 CPX343 B752 Miami Intl (KMIA)
10/18/2021 CPX343 B738 Miami Intl (KMIA)
09/14/2021 CPX343 B738 Miami Intl (KMIA)
08/10/2021 CPX343 B738 Miami Intl (KMIA)
08/05/2021 CPX343 B738 Miami Intl (KMIA)
Recent Departures
Date Flight Type Arrive
05/21/2022 CPX344 B752 Miami Intl (KMIA)
10/19/2021 CPX344 B738 Miami Intl (KMIA)
09/14/2021 CPX344 B738 Miami Intl (KMIA)
08/11/2021 CPX344 B738 Miami Intl (KMIA)
08/09/2021 CPX344 B738 Miami Intl (KMIA)